Argusville, North Dakota
Current Conditions -  °F | °C
As of 3:53 PM on Saturday 20 Dec 2014 (Local Time) from KFAR Reporting Station
Haze Haze  
Wind Chill: -6°   Ceiling: 600
Heat Index: -1°   Visibility: 4mi
Dew Point: -3°   Wind: 14mph
Humidity: 85%   Direction: 170°S
Pressure: 29.96"   Gusts: NA
Location:  47.05°N, 96.93°W
Report Text: KFAR 202153Z 17012KT 4SM BR OVC006 M01/M03 A2996 RMK AO2 SLP159 T10061028
Loading
Personal Weather Stations






























Interactive Weather Map New forecast layout! Learn more

10-Day Weather Forecast

Advertisements
Track Severe Weather on mobile